Molino, Pennsylvania
Current Conditions -  °F | °C
As of 10:37 AM on Saturday 20 Dec 2014 (Local Time) from KRDG Reporting Station
Overcast Overcast  
Wind Chill: 33°   Ceiling: 3000
Heat Index: 33°   Visibility: 10mi
Dew Point: 20°   Wind: 3mph
Humidity: 59%   Direction: 360°N
Pressure: 30.29"   Gusts: NA
Location:  40.633°N, 76.068°W
Report Text: KRDG 201537Z AUTO 36003KT 10SM OVC030 01/M07 A3029 RMK AO2 T00061067
Loading
Personal Weather Stations






























Interactive Weather Map New forecast layout! Learn more

10-Day Weather Forecast

Advertisements
Track Severe Weather on mobile